KFWC

Fairfield Municipal Airport

Fairfield, Illinois, USA
METAR KFWC 231055Z AUTO 24009G18KT 10SM OVC020 03/00 A2978 RMK AO1 T00300000
Observed Flight Rules
Jan-23 @ 10:55 UTC (an hour ago) Marginal Visual Flight Rules
Wind Visibility Clouds
240° at 9 knots
 Gusting to 18 knots
10 miles
  • Overcast at 2,000' AGL
Temperatures Readings
Current 3°C / 37°F
Dewpoint 0°C / 32°F
Humidity 81%
Altimeter 29.78" Hg
Pressure 1008 hPa
Elevation 133
METAR KFWC 231055Z AUTO 24009G18KT 10SM OVC020 03/00 A2978 RMK AO1 T00300000
Observed Flight Rules
Jan-23 @ 10:55 UTC
(an hour ago)
MVFR
Wind Visibility
240° at 9 knots
 Gusting to 18 knots
10 miles
Clouds
  • Overcast at 2,000' AGL
Temperature Dewpoint
3°C / 37°F 0°C / 32°F
Humidity Altimeter Pressure
81% 29.78" Hg 1008 hPa